sensor_id;sensor_type;location;lat;lon;timestamp;pressure;altitude;pressure_sealevel;temperature;humidity
6435;BME280;3250;42.694;23.278;2022-07-23T00:00:54;95127.31;;;22.28;59.13
6435;BME280;3250;42.694;23.278;2022-07-23T00:03:20;95131.09;;;22.22;59.10
6435;BME280;3250;42.694;23.278;2022-07-23T00:05:45;95116.72;;;22.02;59.68
6435;BME280;3250;42.694;23.278;2022-07-23T00:08:11;95111.09;;;21.94;59.42
6435;BME280;3250;42.694;23.278;2022-07-23T00:10:37;95142.44;;;22.08;59.53
6435;BME280;3250;42.694;23.278;2022-07-23T00:13:02;95137.91;;;22.04;59.42
6435;BME280;3250;42.694;23.278;2022-07-23T00:15:28;95133.63;;;21.98;59.66
6435;BME280;3250;42.694;23.278;2022-07-23T00:17:54;95136.81;;;22.05;59.33
6435;BME280;3250;42.694;23.278;2022-07-23T00:20:19;95124.81;;;21.87;59.40
6435;BME280;3250;42.694;23.278;2022-07-23T00:22:49;95145.16;;;21.93;59.84
6435;BME280;3250;42.694;23.278;2022-07-23T00:25:15;95144.06;;;21.94;59.85
6435;BME280;3250;42.694;23.278;2022-07-23T00:27:41;95143.53;;;21.92;59.67
6435;BME280;3250;42.694;23.278;2022-07-23T00:30:07;95154.00;;;21.94;59.90
6435;BME280;3250;42.694;23.278;2022-07-23T00:35:13;95154.00;;;21.94;59.60
6435;BME280;3250;42.694;23.278;2022-07-23T00:37:38;95150.25;;;21.95;59.09
6435;BME280;3250;42.694;23.278;2022-07-23T00:40:04;95150.78;;;21.92;59.64
6435;BME280;3250;42.694;23.278;2022-07-23T00:42:31;95147.03;;;21.93;60.05
6435;BME280;3250;42.694;23.278;2022-07-23T00:44:56;95149.16;;;21.91;59.56
6435;BME280;3250;42.694;23.278;2022-07-23T00:47:22;95153.22;;;21.83;59.43
6435;BME280;3250;42.694;23.278;2022-07-23T00:49:47;95152.72;;;21.76;59.39
6435;BME280;3250;42.694;23.278;2022-07-23T00:52:13;95157.00;;;21.77;59.72
6435;BME280;3250;42.694;23.278;2022-07-23T00:54:39;95149.78;;;21.77;59.49
6435;BME280;3250;42.694;23.278;2022-07-23T00:57:04;95143.38;;;21.68;59.17
6435;BME280;3250;42.694;23.278;2022-07-23T00:59:30;95157.53;;;21.74;59.34
6435;BME280;3250;42.694;23.278;2022-07-23T01:01:55;95152.72;;;21.71;59.39
6435;BME280;3250;42.694;23.278;2022-07-23T01:04:21;95153.28;;;21.68;59.42
6435;BME280;3250;42.694;23.278;2022-07-23T01:06:46;95153.28;;;21.63;59.65
6435;BME280;3250;42.694;23.278;2022-07-23T01:09:12;95154.09;;;21.63;59.57
6435;BME280;3250;42.694;23.278;2022-07-23T01:11:38;95158.41;;;21.59;60.00
6435;BME280;3250;42.694;23.278;2022-07-23T01:14:22;95146.38;;;21.52;60.52
6435;BME280;3250;42.694;23.278;2022-07-23T01:16:49;95114.78;;;21.28;60.75
6435;BME280;3250;42.694;23.278;2022-07-23T01:19:15;95149.31;;;21.40;60.94
6435;BME280;3250;42.694;23.278;2022-07-23T01:21:44;95150.41;;;21.34;61.17
6435;BME280;3250;42.694;23.278;2022-07-23T01:24:11;95147.47;;;21.35;60.96
6435;BME280;3250;42.694;23.278;2022-07-23T01:26:40;95141.81;;;21.37;61.43
6435;BME280;3250;42.694;23.278;2022-07-23T01:29:05;95153.09;;;21.34;61.41
6435;BME280;3250;42.694;23.278;2022-07-23T01:31:31;95145.84;;;21.29;61.79
6435;BME280;3250;42.694;23.278;2022-07-23T01:33:57;95150.94;;;21.31;61.89
6435;BME280;3250;42.694;23.278;2022-07-23T01:36:23;95145.59;;;21.31;61.93
6435;BME280;3250;42.694;23.278;2022-07-23T01:38:48;95130.34;;;21.21;61.93
6435;BME280;3250;42.694;23.278;2022-07-23T01:41:14;95145.88;;;21.24;61.76
6435;BME280;3250;42.694;23.278;2022-07-23T01:43:39;95143.19;;;21.24;61.68
6435;BME280;3250;42.694;23.278;2022-07-23T01:46:05;95146.66;;;21.20;61.73
6435;BME280;3250;42.694;23.278;2022-07-23T01:48:31;95145.09;;;21.19;62.23
6435;BME280;3250;42.694;23.278;2022-07-23T01:50:56;95147.72;;;21.14;62.52
6435;BME280;3250;42.694;23.278;2022-07-23T01:53:21;95144.00;;;21.09;62.43
6435;BME280;3250;42.694;23.278;2022-07-23T01:55:47;95141.84;;;21.06;62.66
6435;BME280;3250;42.694;23.278;2022-07-23T01:58:13;95136.75;;;21.05;62.35
6435;BME280;3250;42.694;23.278;2022-07-23T02:00:38;95142.63;;;21.02;62.75
6435;BME280;3250;42.694;23.278;2022-07-23T02:03:04;95146.13;;;21.02;62.92
6435;BME280;3250;42.694;23.278;2022-07-23T02:05:30;95144.25;;;21.03;63.07
6435;BME280;3250;42.694;23.278;2022-07-23T02:07:57;95144.81;;;21.00;63.00
6435;BME280;3250;42.694;23.278;2022-07-23T02:10:23;95114.03;;;20.82;63.06
6435;BME280;3250;42.694;23.278;2022-07-23T02:12:48;95142.38;;;20.98;63.00
6435;BME280;3250;42.694;23.278;2022-07-23T02:15:14;95145.84;;;20.94;62.98
6435;BME280;3250;42.694;23.278;2022-07-23T02:17:39;95145.34;;;20.92;63.28
6435;BME280;3250;42.694;23.278;2022-07-23T02:20:06;95151.75;;;20.86;63.52
6435;BME280;3250;42.694;23.278;2022-07-23T02:22:32;95145.34;;;20.82;63.38
6435;BME280;3250;42.694;23.278;2022-07-23T02:24:57;95148.81;;;20.82;63.89
6435;BME280;3250;42.694;23.278;2022-07-23T02:27:23;95141.06;;;20.76;63.68
6435;BME280;3250;42.694;23.278;2022-07-23T02:29:49;95148.00;;;20.82;63.62
6435;BME280;3250;42.694;23.278;2022-07-23T02:32:14;95146.13;;;20.77;63.99
6435;BME280;3250;42.694;23.278;2022-07-23T02:34:40;95144.25;;;20.73;64.04
6435;BME280;3250;42.694;23.278;2022-07-23T02:37:05;95144.25;;;20.67;64.44
6435;BME280;3250;42.694;23.278;2022-07-23T02:39:31;95139.69;;;20.63;64.00
6435;BME280;3250;42.694;23.278;2022-07-23T02:41:56;95152.28;;;20.62;64.77
6435;BME280;3250;42.694;23.278;2022-07-23T02:44:21;95145.06;;;20.63;64.92
6435;BME280;3250;42.694;23.278;2022-07-23T02:46:47;95120.16;;;20.47;64.70
6435;BME280;3250;42.694;23.278;2022-07-23T02:49:12;95153.59;;;20.60;64.61
6435;BME280;3250;42.694;23.278;2022-07-23T02:51:38;95146.38;;;20.55;64.74
6435;BME280;3250;42.694;23.278;2022-07-23T02:54:03;95161.91;;;20.53;64.80
6435;BME280;3250;42.694;23.278;2022-07-23T02:56:28;95158.16;;;20.49;65.09
6435;BME280;3250;42.694;23.278;2022-07-23T02:58:54;95155.97;;;20.41;64.70
6435;BME280;3250;42.694;23.278;2022-07-23T03:01:19;95164.81;;;20.47;64.93
6435;BME280;3250;42.694;23.278;2022-07-23T03:03:45;95167.75;;;20.45;65.20
6435;BME280;3250;42.694;23.278;2022-07-23T03:06:10;95170.69;;;20.39;65.14
6435;BME280;3250;42.694;23.278;2022-07-23T03:08:36;95176.03;;;20.39;65.55
6435;BME280;3250;42.694;23.278;2022-07-23T03:11:02;95177.63;;;20.34;65.61
6435;BME280;3250;42.694;23.278;2022-07-23T03:13:28;95173.06;;;20.30;65.85
6435;BME280;3250;42.694;23.278;2022-07-23T03:15:54;95177.34;;;20.31;66.00
6435;BME280;3250;42.694;23.278;2022-07-23T03:18:20;95172.50;;;20.33;65.71
6435;BME280;3250;42.694;23.278;2022-07-23T03:20:45;95187.00;;;20.37;65.77
6435;BME280;3250;42.694;23.278;2022-07-23T03:23:10;95191.00;;;20.34;65.74
6435;BME280;3250;42.694;23.278;2022-07-23T03:25:36;95180.31;;;20.34;65.46
6435;BME280;3250;42.694;23.278;2022-07-23T03:28:01;95184.59;;;20.36;65.13
6435;BME280;3250;42.694;23.278;2022-07-23T03:30:27;95187.25;;;20.36;65.47
6435;BME280;3250;42.694;23.278;2022-07-23T03:32:52;95186.69;;;20.33;65.31
6435;BME280;3250;42.694;23.278;2022-07-23T03:35:18;95195.03;;;20.37;65.23
6435;BME280;3250;42.694;23.278;2022-07-23T03:37:43;95183.53;;;20.37;65.17
6435;BME280;3250;42.694;23.278;2022-07-23T03:40:09;95194.78;;;20.39;64.80
6435;BME280;3250;42.694;23.278;2022-07-23T03:42:34;95196.91;;;20.37;65.53
6435;BME280;3250;42.694;23.278;2022-07-23T03:45:03;95198.50;;;20.38;65.54
6435;BME280;3250;42.694;23.278;2022-07-23T03:47:29;95198.50;;;20.43;65.54
6435;BME280;3250;42.694;23.278;2022-07-23T03:49:54;95191.31;;;20.48;65.43
6435;BME280;3250;42.694;23.278;2022-07-23T03:52:20;95190.78;;;20.61;64.67
6435;BME280;3250;42.694;23.278;2022-07-23T03:54:45;95194.00;;;20.68;64.64
6435;BME280;3250;42.694;23.278;2022-07-23T03:57:11;95159.50;;;20.57;64.56
6435;BME280;3250;42.694;23.278;2022-07-23T03:59:36;95197.25;;;20.91;64.17
6435;BME280;3250;42.694;23.278;2022-07-23T04:02:01;95194.03;;;21.04;64.46
6435;BME280;3250;42.694;23.278;2022-07-23T04:04:27;95197.78;;;21.13;64.14
6435;BME280;3250;42.694;23.278;2022-07-23T04:06:52;95146.94;;;20.88;62.92
6435;BME280;3250;42.694;23.278;2022-07-23T04:09:18;95190.63;;;21.19;62.11
6435;BME280;3250;42.694;23.278;2022-07-23T04:11:43;95199.19;;;21.26;62.53
6435;BME280;3250;42.694;23.278;2022-07-23T04:14:09;95180.94;;;21.23;62.86
6435;BME280;3250;42.694;23.278;2022-07-23T04:16:34;95165.94;;;21.17;63.02
6435;BME280;3250;42.694;23.278;2022-07-23T04:19:00;95198.88;;;21.53;62.71
6435;BME280;3250;42.694;23.278;2022-07-23T04:21:25;95197.47;;;21.75;60.95
6435;BME280;3250;42.694;23.278;2022-07-23T04:23:51;95205.47;;;21.96;60.75
6435;BME280;3250;42.694;23.278;2022-07-23T04:26:16;95204.09;;;22.13;60.26
6435;BME280;3250;42.694;23.278;2022-07-23T04:28:42;95208.81;;;22.37;59.22
6435;BME280;3250;42.694;23.278;2022-07-23T04:31:08;95203.84;;;22.59;58.87
6435;BME280;3250;42.694;23.278;2022-07-23T04:33:33;95203.78;;;22.79;57.97
6435;BME280;3250;42.694;23.278;2022-07-23T04:35:59;95200.75;;;22.91;56.97
6435;BME280;3250;42.694;23.278;2022-07-23T04:38:24;95210.53;;;23.11;57.10
6435;BME280;3250;42.694;23.278;2022-07-23T04:40:49;95193.00;;;23.18;56.38
6435;BME280;3250;42.694;23.278;2022-07-23T04:43:15;95215.94;;;23.40;55.42
6435;BME280;3250;42.694;23.278;2022-07-23T04:45:40;95196.78;;;23.51;54.87
6435;BME280;3250;42.694;23.278;2022-07-23T04:48:06;95211.97;;;23.90;53.92
6435;BME280;3250;42.694;23.278;2022-07-23T04:50:31;95221.09;;;24.18;52.89
6435;BME280;3250;42.694;23.278;2022-07-23T04:52:57;95212.72;;;24.43;52.91
6435;BME280;3250;42.694;23.278;2022-07-23T04:55:22;95212.81;;;24.75;52.46
6435;BME280;3250;42.694;23.278;2022-07-23T04:57:48;95225.28;;;25.09;51.93
6435;BME280;3250;42.694;23.278;2022-07-23T05:00:13;95225.34;;;25.41;51.03
6435;BME280;3250;42.694;23.278;2022-07-23T05:02:39;95229.03;;;25.78;49.82
6435;BME280;3250;42.694;23.278;2022-07-23T05:05:05;95218.09;;;26.15;49.17
6435;BME280;3250;42.694;23.278;2022-07-23T05:07:30;95221.19;;;26.50;47.54
6435;BME280;3250;42.694;23.278;2022-07-23T05:09:56;95214.84;;;26.82;46.78
6435;BME280;3250;42.694;23.278;2022-07-23T05:12:21;95215.59;;;27.10;45.60
6435;BME280;3250;42.694;23.278;2022-07-23T05:14:46;95214.06;;;27.39;44.79
6435;BME280;3250;42.694;23.278;2022-07-23T05:17:12;95206.06;;;27.79;43.74
6435;BME280;3250;42.694;23.278;2022-07-23T05:19:37;95203.44;;;28.27;42.46
6435;BME280;3250;42.694;23.278;2022-07-23T05:22:02;95216.97;;;28.84;41.10
6435;BME280;3250;42.694;23.278;2022-07-23T05:24:28;95217.16;;;29.22;40.42
6435;BME280;3250;42.694;23.278;2022-07-23T05:26:53;95215.25;;;29.48;39.50
6435;BME280;3250;42.694;23.278;2022-07-23T05:29:19;95228.06;;;30.03;39.70
6435;BME280;3250;42.694;23.278;2022-07-23T05:31:44;95230.59;;;30.55;38.22
6435;BME280;3250;42.694;23.278;2022-07-23T05:34:10;95208.81;;;30.84;36.53
6435;BME280;3250;42.694;23.278;2022-07-23T05:36:35;95229.25;;;31.20;36.33
6435;BME280;3250;42.694;23.278;2022-07-23T05:39:02;95232.56;;;31.58;36.46
6435;BME280;3250;42.694;23.278;2022-07-23T05:41:27;95226.28;;;31.99;35.67
6435;BME280;3250;42.694;23.278;2022-07-23T05:43:53;95228.97;;;32.32;34.30
6435;BME280;3250;42.694;23.278;2022-07-23T05:46:18;95228.28;;;32.72;33.30
6435;BME280;3250;42.694;23.278;2022-07-23T05:48:44;95219.97;;;32.92;33.29
6435;BME280;3250;42.694;23.278;2022-07-23T05:51:11;95224.72;;;32.95;33.04
6435;BME280;3250;42.694;23.278;2022-07-23T05:53:36;95224.97;;;32.90;33.64
6435;BME280;3250;42.694;23.278;2022-07-23T05:56:02;95217.16;;;32.77;32.77
6435;BME280;3250;42.694;23.278;2022-07-23T05:58:28;95223.47;;;33.05;31.60
6435;BME280;3250;42.694;23.278;2022-07-23T06:00:53;95228.78;;;33.26;32.07
6435;BME280;3250;42.694;23.278;2022-07-23T06:03:18;95223.84;;;32.91;32.05
6435;BME280;3250;42.694;23.278;2022-07-23T06:05:45;95222.25;;;32.78;32.58
6435;BME280;3250;42.694;23.278;2022-07-23T06:08:10;95199.16;;;32.64;33.20
6435;BME280;3250;42.694;23.278;2022-07-23T06:10:36;95200.78;;;32.40;32.80
6435;BME280;3250;42.694;23.278;2022-07-23T06:13:01;95214.41;;;32.52;33.58
6435;BME280;3250;42.694;23.278;2022-07-23T06:15:27;95214.28;;;32.61;32.88
6435;BME280;3250;42.694;23.278;2022-07-23T06:17:52;95222.69;;;32.56;33.27
6435;BME280;3250;42.694;23.278;2022-07-23T06:20:18;95210.00;;;32.60;33.05
6435;BME280;3250;42.694;23.278;2022-07-23T06:22:43;95217.38;;;32.47;32.77
6435;BME280;3250;42.694;23.278;2022-07-23T06:25:09;95196.22;;;32.20;32.74
6435;BME280;3250;42.694;23.278;2022-07-23T06:27:34;95208.72;;;32.21;34.28
6435;BME280;3250;42.694;23.278;2022-07-23T06:30:00;95214.75;;;32.39;34.25
6435;BME280;3250;42.694;23.278;2022-07-23T06:32:25;95222.03;;;32.59;33.83
6435;BME280;3250;42.694;23.278;2022-07-23T06:34:51;95203.50;;;32.65;32.16
6435;BME280;3250;42.694;23.278;2022-07-23T06:37:16;95213.28;;;32.41;33.05
6435;BME280;3250;42.694;23.278;2022-07-23T06:39:42;95195.50;;;32.11;33.98
6435;BME280;3250;42.694;23.278;2022-07-23T06:42:07;95209.97;;;32.23;33.24
6435;BME280;3250;42.694;23.278;2022-07-23T06:44:32;95215.31;;;32.20;32.54
6435;BME280;3250;42.694;23.278;2022-07-23T06:46:58;95215.75;;;31.65;33.31
6435;BME280;3250;42.694;23.278;2022-07-23T06:49:23;95208.94;;;31.50;33.24
6435;BME280;3250;42.694;23.278;2022-07-23T06:51:49;95212.47;;;31.71;34.18
6435;BME280;3250;42.694;23.278;2022-07-23T06:54:14;95212.06;;;31.94;32.59
6435;BME280;3250;42.694;23.278;2022-07-23T06:56:40;95199.50;;;32.13;33.71
6435;BME280;3250;42.694;23.278;2022-07-23T06:59:05;95204.88;;;32.58;33.71
6435;BME280;3250;42.694;23.278;2022-07-23T07:01:31;95194.97;;;32.78;32.62
6435;BME280;3250;42.694;23.278;2022-07-23T07:03:56;95204.91;;;33.23;32.88
6435;BME280;3250;42.694;23.278;2022-07-23T07:06:22;95212.78;;;33.52;32.78
6435;BME280;3250;42.694;23.278;2022-07-23T07:08:47;95204.31;;;33.57;31.69
6435;BME280;3250;42.694;23.278;2022-07-23T07:11:13;95195.47;;;33.48;31.73
6435;BME280;3250;42.694;23.278;2022-07-23T07:13:38;95186.69;;;33.55;31.90
6435;BME280;3250;42.694;23.278;2022-07-23T07:16:04;95190.97;;;33.40;31.50
6435;BME280;3250;42.694;23.278;2022-07-23T07:18:29;95198.50;;;33.59;31.62
6435;BME280;3250;42.694;23.278;2022-07-23T07:20:56;95194.19;;;33.58;32.11
6435;BME280;3250;42.694;23.278;2022-07-23T07:23:22;95176.16;;;33.69;31.85
6435;BME280;3250;42.694;23.278;2022-07-23T07:25:47;95197.88;;;33.93;31.01
6435;BME280;3250;42.694;23.278;2022-07-23T07:28:13;95198.41;;;33.83;30.85
6435;BME280;3250;42.694;23.278;2022-07-23T07:30:38;95195.25;;;33.81;31.14
6435;BME280;3250;42.694;23.278;2022-07-23T07:33:04;95186.88;;;33.90;30.04
6435;BME280;3250;42.694;23.278;2022-07-23T07:35:29;95179.53;;;33.78;31.30
6435;BME280;3250;42.694;23.278;2022-07-23T07:37:56;95162.47;;;33.25;30.95
6435;BME280;3250;42.694;23.278;2022-07-23T07:40:22;95171.91;;;33.16;31.71
6435;BME280;3250;42.694;23.278;2022-07-23T07:42:49;95182.38;;;33.14;31.35
6435;BME280;3250;42.694;23.278;2022-07-23T07:45:14;95179.63;;;32.86;33.07
6435;BME280;3250;42.694;23.278;2022-07-23T07:47:41;95179.16;;;33.36;32.65
6435;BME280;3250;42.694;23.278;2022-07-23T07:50:07;95190.03;;;33.76;32.43
6435;BME280;3250;42.694;23.278;2022-07-23T07:52:33;95177.47;;;34.34;30.67
6435;BME280;3250;42.694;23.278;2022-07-23T07:55:03;95183.09;;;34.57;29.27
6435;BME280;3250;42.694;23.278;2022-07-23T07:57:29;95177.34;;;34.62;29.87
6435;BME280;3250;42.694;23.278;2022-07-23T07:59:54;95169.91;;;34.78;29.02
6435;BME280;3250;42.694;23.278;2022-07-23T08:02:20;95176.28;;;34.67;29.75
6435;BME280;3250;42.694;23.278;2022-07-23T08:04:45;95180.19;;;34.50;30.46
6435;BME280;3250;42.694;23.278;2022-07-23T08:07:11;95168.63;;;34.25;29.86
6435;BME280;3250;42.694;23.278;2022-07-23T08:09:36;95171.63;;;33.89;29.93
6435;BME280;3250;42.694;23.278;2022-07-23T08:12:02;95159.88;;;33.72;30.96
6435;BME280;3250;42.694;23.278;2022-07-23T08:14:27;95175.06;;;33.86;30.73
6435;BME280;3250;42.694;23.278;2022-07-23T08:16:52;95162.75;;;34.07;29.76
6435;BME280;3250;42.694;23.278;2022-07-23T08:19:18;95150.44;;;34.17;30.48
6435;BME280;3250;42.694;23.278;2022-07-23T08:21:43;95169.72;;;34.71;30.59
6435;BME280;3250;42.694;23.278;2022-07-23T08:24:09;95166.59;;;35.24;30.48
6435;BME280;3250;42.694;23.278;2022-07-23T08:26:34;95167.16;;;35.52;28.92
6435;BME280;3250;42.694;23.278;2022-07-23T08:28:59;95159.31;;;35.50;28.84
6435;BME280;3250;42.694;23.278;2022-07-23T08:31:25;95156.94;;;35.49;29.08
6435;BME280;3250;42.694;23.278;2022-07-23T08:33:50;95153.44;;;35.71;28.83
6435;BME280;3250;42.694;23.278;2022-07-23T08:36:17;95156.69;;;36.00;28.25
6435;BME280;3250;42.694;23.278;2022-07-23T08:38:43;95141.53;;;35.64;28.42
6435;BME280;3250;42.694;23.278;2022-07-23T08:41:09;95142.59;;;35.36;29.15
6435;BME280;3250;42.694;23.278;2022-07-23T08:43:34;95133.28;;;35.41;28.65
6435;BME280;3250;42.694;23.278;2022-07-23T08:46:02;95148.84;;;35.56;28.30
6435;BME280;3250;42.694;23.278;2022-07-23T08:48:29;95147.88;;;35.68;27.75
6435;BME280;3250;42.694;23.278;2022-07-23T08:50:57;95150.78;;;35.55;28.24
6435;BME280;3250;42.694;23.278;2022-07-23T08:53:25;95147.06;;;35.44;28.28
6435;BME280;3250;42.694;23.278;2022-07-23T08:55:52;95139.84;;;35.17;28.44
6435;BME280;3250;42.694;23.278;2022-07-23T08:58:19;95131.19;;;35.15;28.47
6435;BME280;3250;42.694;23.278;2022-07-23T09:00:45;95118.63;;;34.95;28.95
6435;BME280;3250;42.694;23.278;2022-07-23T09:03:33;95143.00;;;35.38;29.64
6435;BME280;3250;42.694;23.278;2022-07-23T09:06:00;95142.06;;;35.50;27.79
6435;BME280;3250;42.694;23.278;2022-07-23T09:08:41;95139.78;;;35.33;29.02
6435;BME280;3250;42.694;23.278;2022-07-23T09:11:17;95126.56;;;34.80;31.08
6435;BME280;3250;42.694;23.278;2022-07-23T09:16:25;95122.38;;;34.87;29.03
6435;BME280;3250;42.694;23.278;2022-07-23T09:18:53;95135.66;;;34.85;29.77
6435;BME280;3250;42.694;23.278;2022-07-23T09:21:27;95120.88;;;34.89;29.89
6435;BME280;3250;42.694;23.278;2022-07-23T09:24:07;95132.28;;;35.10;28.87
6435;BME280;3250;42.694;23.278;2022-07-23T09:31:32;95126.28;;;35.05;29.02
6435;BME280;3250;42.694;23.278;2022-07-23T09:34:22;95120.75;;;35.01;29.45
6435;BME280;3250;42.694;23.278;2022-07-23T09:36:50;95126.06;;;35.13;29.69
6435;BME280;3250;42.694;23.278;2022-07-23T09:39:24;95126.44;;;35.31;26.81
6435;BME280;3250;42.694;23.278;2022-07-23T09:41:50;95109.41;;;35.22;27.75
6435;BME280;3250;42.694;23.278;2022-07-23T09:44:18;95112.50;;;35.20;28.45
6435;BME280;3250;42.694;23.278;2022-07-23T09:46:46;95105.03;;;34.98;26.93
6435;BME280;3250;42.694;23.278;2022-07-23T09:49:22;95101.94;;;35.00;26.79
6435;BME280;3250;42.694;23.278;2022-07-23T09:51:54;95110.81;;;34.93;26.95
6435;BME280;3250;42.694;23.278;2022-07-23T09:54:42;95111.53;;;34.90;26.49
6435;BME280;3250;42.694;23.278;2022-07-23T09:57:11;95102.06;;;34.88;25.25
6435;BME280;3250;42.694;23.278;2022-07-23T09:59:41;95098.50;;;34.84;25.78
6435;BME280;3250;42.694;23.278;2022-07-23T10:02:09;95100.50;;;34.87;26.18
6435;BME280;3250;42.694;23.278;2022-07-23T10:04:36;95091.44;;;35.02;28.00
6435;BME280;3250;42.694;23.278;2022-07-23T10:07:04;95079.03;;;35.08;27.36
6435;BME280;3250;42.694;23.278;2022-07-23T10:09:33;95082.19;;;35.29;27.33
6435;BME280;3250;42.694;23.278;2022-07-23T10:12:00;95094.41;;;35.54;26.78
6435;BME280;3250;42.694;23.278;2022-07-23T10:14:35;95092.28;;;35.67;26.97
6435;BME280;3250;42.694;23.278;2022-07-23T10:17:02;95072.81;;;35.72;27.41
6435;BME280;3250;42.694;23.278;2022-07-23T10:19:28;95064.66;;;35.76;26.83
6435;BME280;3250;42.694;23.278;2022-07-23T10:22:00;95084.06;;;35.90;25.90
6435;BME280;3250;42.694;23.278;2022-07-23T10:35:40;95073.81;;;35.64;23.41
6435;BME280;3250;42.694;23.278;2022-07-23T10:38:15;95070.28;;;35.64;24.75
6435;BME280;3250;42.694;23.278;2022-07-23T10:40:58;95047.78;;;35.51;23.33
6435;BME280;3250;42.694;23.278;2022-07-23T10:43:24;95064.81;;;35.64;23.76
6435;BME280;3250;42.694;23.278;2022-07-23T10:45:51;95054.34;;;35.46;23.69
6435;BME280;3250;42.694;23.278;2022-07-23T10:50:43;95053.00;;;35.60;24.76
6435;BME280;3250;42.694;23.278;2022-07-23T10:53:11;95045.22;;;35.62;23.65
6435;BME280;3250;42.694;23.278;2022-07-23T10:58:05;95022.50;;;35.61;22.02
6435;BME280;3250;42.694;23.278;2022-07-23T11:00:35;95040.66;;;35.69;20.86
6435;BME280;3250;42.694;23.278;2022-07-23T11:03:28;95040.16;;;35.64;21.15
6435;BME280;3250;42.694;23.278;2022-07-23T11:05:54;95032.78;;;35.68;20.65
6435;BME280;3250;42.694;23.278;2022-07-23T11:08:19;95034.44;;;35.72;20.12
6435;BME280;3250;42.694;23.278;2022-07-23T11:34:35;94979.06;;;35.86;17.33
6435;BME280;3250;42.694;23.278;2022-07-23T11:37:02;95013.94;;;36.15;17.77
6435;BME280;3250;42.694;23.278;2022-07-23T11:39:29;94999.84;;;36.13;19.12
6435;BME280;3250;42.694;23.278;2022-07-23T11:41:56;94990.81;;;36.13;18.94
6435;BME280;3250;42.694;23.278;2022-07-23T11:44:30;95008.38;;;36.35;18.77
6435;BME280;3250;42.694;23.278;2022-07-23T11:46:56;95002.59;;;36.40;18.42
6435;BME280;3250;42.694;23.278;2022-07-23T11:49:23;95004.16;;;36.41;15.68
6435;BME280;3250;42.694;23.278;2022-07-23T11:54:35;95001.16;;;36.49;17.06
6435;BME280;3250;42.694;23.278;2022-07-23T11:57:02;94988.94;;;36.47;17.34
6435;BME280;3250;42.694;23.278;2022-07-23T11:59:30;94982.00;;;36.23;15.85
6435;BME280;3250;42.694;23.278;2022-07-23T12:01:58;94960.34;;;35.91;15.39
6435;BME280;3250;42.694;23.278;2022-07-23T12:04:33;94994.56;;;36.01;14.57
6435;BME280;3250;42.694;23.278;2022-07-23T12:07:02;94984.75;;;36.00;15.54
6435;BME280;3250;42.694;23.278;2022-07-23T12:09:27;94979.25;;;35.97;15.51
6435;BME280;3250;42.694;23.278;2022-07-23T12:12:00;94982.34;;;35.95;15.93
6435;BME280;3250;42.694;23.278;2022-07-23T12:14:26;94969.69;;;35.87;16.44
6435;BME280;3250;42.694;23.278;2022-07-23T12:17:09;94948.13;;;35.85;15.39
6435;BME280;3250;42.694;23.278;2022-07-23T12:19:34;94973.63;;;35.89;15.49
6435;BME280;3250;42.694;23.278;2022-07-23T12:22:00;94973.25;;;35.91;16.27
6435;BME280;3250;42.694;23.278;2022-07-23T12:24:25;94969.94;;;36.05;16.79
6435;BME280;3250;42.694;23.278;2022-07-23T12:27:11;94963.84;;;36.18;16.61
6435;BME280;3250;42.694;23.278;2022-07-23T12:29:37;94954.59;;;36.26;17.28
6435;BME280;3250;42.694;23.278;2022-07-23T12:32:26;94959.84;;;36.39;17.03
6435;BME280;3250;42.694;23.278;2022-07-23T12:35:05;94959.13;;;36.45;17.14
6435;BME280;3250;42.694;23.278;2022-07-23T12:37:36;94956.91;;;36.54;16.24
6435;BME280;3250;42.694;23.278;2022-07-23T12:43:09;94952.66;;;36.60;16.16
6435;BME280;3250;42.694;23.278;2022-07-23T12:48:14;94950.97;;;36.49;15.90
6435;BME280;3250;42.694;23.278;2022-07-23T12:50:48;94941.75;;;36.34;14.38
6435;BME280;3250;42.694;23.278;2022-07-23T12:53:19;94939.78;;;36.35;15.55
6435;BME280;3250;42.694;23.278;2022-07-23T12:55:46;94937.81;;;36.32;15.12
6435;BME280;3250;42.694;23.278;2022-07-23T12:58:14;94916.72;;;36.09;15.36
6435;BME280;3250;42.694;23.278;2022-07-23T13:05:56;94930.06;;;36.11;16.99
6435;BME280;3250;42.694;23.278;2022-07-23T13:08:22;94926.97;;;36.12;17.51
6435;BME280;3250;42.694;23.278;2022-07-23T13:10:49;94935.72;;;36.21;18.72
6435;BME280;3250;42.694;23.278;2022-07-23T13:13:18;94930.28;;;36.25;18.19
6435;BME280;3250;42.694;23.278;2022-07-23T13:15:44;94908.97;;;36.15;17.45
6435;BME280;3250;42.694;23.278;2022-07-23T13:18:10;94905.34;;;36.07;17.08
6435;BME280;3250;42.694;23.278;2022-07-23T13:20:36;94935.06;;;36.32;17.35
6435;BME280;3250;42.694;23.278;2022-07-23T13:23:04;94930.75;;;36.31;16.70
6435;BME280;3250;42.694;23.278;2022-07-23T13:25:29;94908.06;;;36.07;16.74
6435;BME280;3250;42.694;23.278;2022-07-23T13:27:54;94928.56;;;36.17;15.64
6435;BME280;3250;42.694;23.278;2022-07-23T13:30:20;94919.94;;;36.15;15.64
6435;BME280;3250;42.694;23.278;2022-07-23T13:32:47;94896.59;;;35.98;15.62
6435;BME280;3250;42.694;23.278;2022-07-23T13:35:13;94921.06;;;36.10;14.54
6435;BME280;3250;42.694;23.278;2022-07-23T13:37:38;94918.31;;;36.10;14.27
6435;BME280;3250;42.694;23.278;2022-07-23T13:40:05;94906.47;;;36.03;14.79
6435;BME280;3250;42.694;23.278;2022-07-23T13:42:30;94916.72;;;36.09;15.40
6435;BME280;3250;42.694;23.278;2022-07-23T13:44:56;94913.09;;;36.02;15.28
6435;BME280;3250;42.694;23.278;2022-07-23T13:47:22;94911.88;;;35.99;14.89
6435;BME280;3250;42.694;23.278;2022-07-23T13:49:47;94914.63;;;35.99;15.42
6435;BME280;3250;42.694;23.278;2022-07-23T13:52:12;94873.59;;;35.76;14.37
6435;BME280;3250;42.694;23.278;2022-07-23T13:54:38;94900.03;;;35.91;14.29
6435;BME280;3250;42.694;23.278;2022-07-23T13:57:03;94879.03;;;35.73;14.52
6435;BME280;3250;42.694;23.278;2022-07-23T13:59:29;94904.72;;;35.91;14.50
6435;BME280;3250;42.694;23.278;2022-07-23T14:01:55;94865.91;;;35.59;15.57
6435;BME280;3250;42.694;23.278;2022-07-23T14:04:21;94865.53;;;35.61;15.35
6435;BME280;3250;42.694;23.278;2022-07-23T14:06:46;94872.69;;;35.69;14.77
6435;BME280;3250;42.694;23.278;2022-07-23T14:09:12;94898.44;;;35.87;16.00
6435;BME280;3250;42.694;23.278;2022-07-23T14:11:37;94903.56;;;35.92;16.30